createdAt,value
2019-03-12T00:01:07.475Z,97807.26
2019-03-12T00:03:09.100Z,97814.14
2019-03-12T00:05:10.730Z,97812.08
2019-03-12T00:07:12.374Z,97812.42
2019-03-12T00:09:13.984Z,97812.44
2019-03-12T00:11:15.616Z,97820.53
2019-03-12T00:13:17.223Z,97827.36
2019-03-12T00:15:18.831Z,97829.41
2019-03-12T00:17:20.446Z,97827.17
2019-03-12T00:19:22.043Z,97830.08
2019-03-12T00:21:23.657Z,97831.70
2019-03-12T00:23:25.268Z,97844.36
2019-03-12T00:25:26.861Z,97849.91
2019-03-12T00:27:28.459Z,97867.87
2019-03-12T00:29:30.058Z,97866.63
2019-03-12T00:31:31.660Z,97870.09
2019-03-12T00:33:33.287Z,97868.45
2019-03-12T00:35:34.892Z,97882.53
2019-03-12T00:37:36.500Z,97882.17
2019-03-12T00:39:38.116Z,97886.36
2019-03-12T00:41:39.700Z,97890.62
2019-03-12T00:43:41.302Z,97893.89
2019-03-12T00:45:42.891Z,97901.93
2019-03-12T00:47:44.486Z,97912.57
2019-03-12T00:49:46.112Z,97912.50
2019-03-12T00:51:47.709Z,97907.89
2019-03-12T00:53:49.306Z,97918.98
2019-03-12T00:55:50.901Z,97918.62
2019-03-12T00:57:52.479Z,97929.30
2019-03-12T00:59:56.328Z,97930.63
2019-03-12T01:01:55.768Z,97941.73
2019-03-12T01:03:57.367Z,97938.80
2019-03-12T01:05:58.974Z,97943.00
2019-03-12T01:08:00.566Z,97948.69
2019-03-12T01:10:02.175Z,97942.23
2019-03-12T01:12:03.775Z,97946.14
2019-03-12T01:14:05.382Z,97943.75
2019-03-12T01:16:07.044Z,97953.22
2019-03-12T01:18:08.656Z,97959.43
2019-03-12T01:20:10.260Z,97958.78
2019-03-12T01:22:11.890Z,97955.93
2019-03-12T01:24:13.489Z,97958.14
2019-03-12T01:26:15.119Z,97952.59
2019-03-12T01:28:16.715Z,97962.03
2019-03-12T01:30:18.323Z,97959.54
2019-03-12T01:32:19.957Z,97962.90
2019-03-12T01:34:21.550Z,97965.05
2019-03-12T01:36:23.183Z,97967.50
2019-03-12T01:38:24.800Z,97966.00
2019-03-12T01:40:26.426Z,97936.11
2019-03-12T01:42:28.044Z,97977.63
2019-03-12T01:44:29.670Z,97976.28
2019-03-12T01:46:31.274Z,97981.73
2019-03-12T01:48:32.882Z,97986.22
2019-03-12T01:50:34.487Z,97993.09
2019-03-12T01:52:36.085Z,97983.60
2019-03-12T01:54:37.710Z,97989.55
2019-03-12T01:56:39.297Z,97994.58
2019-03-12T01:58:40.938Z,97986.42
2019-03-12T02:00:42.539Z,97990.27
2019-03-12T02:02:44.138Z,97993.53
2019-03-12T02:04:45.783Z,97993.97
2019-03-12T02:06:47.419Z,97990.11
2019-03-12T02:08:49.004Z,97997.41
2019-03-12T02:10:50.612Z,98005.88
2019-03-12T02:12:52.221Z,98006.72
2019-03-12T02:14:53.828Z,98005.41
2019-03-12T02:16:55.453Z,98005.32
2019-03-12T02:18:57.063Z,98018.17
2019-03-12T02:20:58.671Z,98020.32
2019-03-12T02:23:00.272Z,98028.01
2019-03-12T02:25:01.882Z,98031.82
2019-03-12T02:27:03.503Z,98032.24
2019-03-12T02:29:05.148Z,98034.03
2019-03-12T02:31:06.759Z,98031.11
2019-03-12T02:33:08.363Z,98040.63
2019-03-12T02:35:09.995Z,98036.37
2019-03-12T02:37:11.612Z,98046.62
2019-03-12T02:39:13.345Z,98042.05
2019-03-12T02:41:14.953Z,98044.64
2019-03-12T02:43:16.565Z,98040.73
2019-03-12T02:45:18.174Z,98045.40
2019-03-12T02:47:19.771Z,98044.47
2019-03-12T02:49:21.406Z,98051.25
2019-03-12T02:51:23.017Z,98058.14
2019-03-12T02:53:24.670Z,98064.95
2019-03-12T02:55:26.898Z,98063.67
2019-03-12T02:57:28.510Z,98062.83
2019-03-12T02:59:30.133Z,98058.98
2019-03-12T03:01:31.723Z,98062.40
2019-03-12T03:03:33.320Z,98067.49
2019-03-12T03:05:34.937Z,98083.98
2019-03-12T03:07:42.248Z,98079.67
2019-03-12T03:09:43.791Z,98079.67
2019-03-12T03:11:45.404Z,98086.48
2019-03-12T03:13:47.005Z,98087.77
2019-03-12T03:15:48.594Z,98092.08
2019-03-12T03:17:50.199Z,98105.73
2019-03-12T03:19:51.815Z,98104.88
2019-03-12T03:21:53.425Z,98102.27
2019-03-12T03:23:55.039Z,98106.95
2019-03-12T03:25:56.669Z,98100.08
2019-03-12T03:27:58.268Z,98099.62
2019-03-12T03:29:59.856Z,98104.77
2019-03-12T03:32:01.535Z,98101.82
2019-03-12T03:34:03.131Z,98106.97
2019-03-12T03:36:04.781Z,98109.11
2019-03-12T03:38:06.391Z,98115.49
2019-03-12T03:40:08.007Z,98114.27
2019-03-12T03:42:09.643Z,98117.19
2019-03-12T03:44:11.248Z,98121.73
2019-03-12T03:46:12.899Z,98126.02
2019-03-12T03:48:14.539Z,98129.50
2019-03-12T03:50:16.153Z,98124.61
2019-03-12T03:52:17.815Z,98129.70
2019-03-12T03:54:19.463Z,98127.16
2019-03-12T03:56:21.083Z,98130.20
2019-03-12T03:58:22.681Z,98130.61
2019-03-12T04:00:24.280Z,98133.18
2019-03-12T04:02:25.905Z,98136.59
2019-03-12T04:04:27.488Z,98137.03
2019-03-12T04:06:33.533Z,98140.87
2019-03-12T04:08:30.804Z,98141.78
2019-03-12T04:10:32.433Z,98138.72
2019-03-12T04:12:34.082Z,98142.22
2019-03-12T04:14:35.683Z,98152.38
2019-03-12T04:16:37.268Z,98157.16
2019-03-12T04:18:38.881Z,98149.09
2019-03-12T04:20:40.488Z,98153.38
2019-03-12T04:22:42.142Z,98152.58
2019-03-12T04:24:43.760Z,98145.32
2019-03-12T04:26:45.407Z,98153.02
2019-03-12T04:28:47.012Z,98149.23
2019-03-12T04:30:48.615Z,98146.25
2019-03-12T04:32:50.245Z,98144.48
2019-03-12T04:34:51.857Z,98145.77
2019-03-12T04:36:53.724Z,98151.31
2019-03-12T04:38:55.326Z,98153.42
2019-03-12T04:40:56.918Z,98150.45
2019-03-12T04:42:58.499Z,98130.33
2019-03-12T04:45:00.181Z,98157.34
2019-03-12T04:47:01.754Z,98150.53
2019-03-12T04:49:03.674Z,98151.42
2019-03-12T04:51:05.282Z,98146.39
2019-03-12T04:53:06.919Z,98154.02
2019-03-12T04:55:08.513Z,98158.75
2019-03-12T04:57:10.156Z,98149.74
2019-03-12T04:59:11.753Z,98158.33
2019-03-12T05:01:13.345Z,98159.13
2019-03-12T05:03:14.942Z,98153.98
2019-03-12T05:05:16.536Z,98156.21
2019-03-12T05:07:18.170Z,98157.56
2019-03-12T05:09:19.766Z,98159.02
2019-03-12T05:11:21.376Z,98162.92
2019-03-12T05:13:22.973Z,98156.23
2019-03-12T05:15:24.566Z,98164.00
2019-03-12T05:17:26.204Z,98159.81
2019-03-12T05:19:27.863Z,98164.67
2019-03-12T05:21:29.468Z,98167.34
2019-03-12T05:23:31.061Z,98168.70
2019-03-12T05:25:32.655Z,98175.58
2019-03-12T05:27:34.271Z,98174.66
2019-03-12T05:29:35.869Z,98176.31
2019-03-12T05:31:37.452Z,98176.17
2019-03-12T05:33:39.046Z,98178.08
2019-03-12T05:35:40.655Z,98181.38
2019-03-12T05:37:42.240Z,98181.31
2019-03-12T05:39:43.843Z,98184.97
2019-03-12T05:41:45.474Z,98177.59
2019-03-12T05:43:47.069Z,98173.20
2019-03-12T05:45:48.711Z,98169.22
2019-03-12T05:47:50.321Z,98168.61
2019-03-12T05:49:51.918Z,98171.95
2019-03-12T05:51:53.555Z,98173.92
2019-03-12T05:53:55.172Z,98175.57
2019-03-12T05:55:56.784Z,98176.41
2019-03-12T05:57:58.369Z,98177.21
2019-03-12T06:00:00.700Z,98189.09
2019-03-12T06:02:02.284Z,98188.57
2019-03-12T06:04:03.935Z,98193.63
2019-03-12T06:06:05.561Z,98196.09
2019-03-12T06:08:07.164Z,98193.36
2019-03-12T06:10:08.779Z,98191.89
2019-03-12T06:12:10.384Z,98198.44
2019-03-12T06:14:12.010Z,98196.89
2019-03-12T06:16:13.592Z,98194.80
2019-03-12T06:18:15.223Z,98187.64
2019-03-12T06:20:16.817Z,98191.95
2019-03-12T06:22:18.427Z,98197.12
2019-03-12T06:24:20.054Z,98198.78
2019-03-12T06:26:21.650Z,98193.77
2019-03-12T06:28:23.293Z,98199.09
2019-03-12T06:30:26.038Z,98200.45
2019-03-12T06:32:26.567Z,98204.41
2019-03-12T06:34:28.193Z,98202.34
2019-03-12T06:36:30.394Z,98205.41
2019-03-12T06:38:46.641Z,98210.17
2019-03-12T06:40:54.100Z,98205.95
2019-03-12T06:43:08.597Z,98217.09
2019-03-12T06:45:14.685Z,98221.36
2019-03-12T06:47:33.462Z,98222.26
2019-03-12T06:49:53.724Z,98231.11
2019-03-12T06:51:56.047Z,98231.11
2019-03-12T06:53:57.641Z,98237.45
2019-03-12T06:56:00.034Z,98192.25
2019-03-12T06:58:07.227Z,98231.70
2019-03-12T07:00:09.244Z,98234.19
2019-03-12T07:02:10.829Z,98238.32
2019-03-12T07:04:13.138Z,98236.49
2019-03-12T07:06:18.209Z,98244.05
2019-03-12T07:08:22.584Z,98235.03
2019-03-12T07:10:29.874Z,98232.41
2019-03-12T07:12:33.205Z,98243.86
2019-03-12T07:14:55.576Z,98243.42
2019-03-12T07:16:57.203Z,98246.78
2019-03-12T07:19:01.427Z,98246.77
2019-03-12T07:21:03.064Z,98236.09
2019-03-12T07:23:20.338Z,98238.16
2019-03-12T07:25:21.939Z,98233.91
2019-03-12T07:27:26.025Z,98231.84
2019-03-12T07:29:44.349Z,98233.05
2019-03-12T07:31:47.771Z,98227.09
2019-03-12T07:34:01.118Z,98225.93
2019-03-12T07:36:18.546Z,98224.30
2019-03-12T07:38:22.661Z,98230.39
2019-03-12T07:40:30.466Z,98216.87
2019-03-12T07:42:34.663Z,98224.55
2019-03-12T07:44:36.798Z,98216.09
2019-03-12T07:46:42.190Z,98225.53
2019-03-12T07:48:44.276Z,98223.16
2019-03-12T07:50:48.680Z,98221.03
2019-03-12T07:53:10.143Z,98219.75
2019-03-12T07:55:14.608Z,98185.75
2019-03-12T07:57:19.767Z,98215.59
2019-03-12T07:59:27.120Z,98218.15
2019-03-12T08:01:32.257Z,98208.33
2019-03-12T08:03:39.541Z,98207.06
2019-03-12T08:05:56.765Z,98210.52
2019-03-12T08:08:00.869Z,98204.83
2019-03-12T08:10:09.279Z,98206.22
2019-03-12T08:12:10.884Z,98198.53
2019-03-12T08:14:13.139Z,98196.97
2019-03-12T08:16:15.338Z,98201.87
2019-03-12T08:18:35.587Z,98198.75
2019-03-12T08:20:51.236Z,98200.10
2019-03-12T08:22:58.281Z,98207.33
2019-03-12T08:25:03.363Z,98203.58
2019-03-12T08:27:16.724Z,98205.42
2019-03-12T08:29:36.082Z,98201.77
2019-03-12T08:31:43.389Z,98193.77
2019-03-12T08:33:55.782Z,98195.05
2019-03-12T08:36:03.087Z,98197.92
2019-03-12T08:38:15.432Z,98200.48
2019-03-12T08:40:24.542Z,98200.66
2019-03-12T08:42:54.035Z,98204.29
2019-03-12T08:45:00.462Z,98197.97
2019-03-12T08:47:18.020Z,98201.45
2019-03-12T08:49:35.001Z,98204.72
2019-03-12T08:51:36.969Z,98208.55
2019-03-12T08:53:39.455Z,98211.48
2019-03-12T08:55:41.088Z,98202.81
2019-03-12T08:57:54.564Z,98207.93
2019-03-12T09:00:11.042Z,98200.41
2019-03-12T09:02:29.081Z,98208.28
2019-03-12T09:04:36.301Z,98209.53
2019-03-12T09:06:48.733Z,98209.87
2019-03-12T09:08:51.296Z,98196.59
2019-03-12T09:10:55.511Z,98202.64
2019-03-12T09:12:58.869Z,98211.75
2019-03-12T09:15:06.139Z,98206.76
2019-03-12T09:17:27.466Z,98210.27
2019-03-12T09:19:29.078Z,98201.81
2019-03-12T09:21:37.392Z,98205.34
2019-03-12T09:23:55.868Z,98204.13
2019-03-12T09:25:57.480Z,98209.25
2019-03-12T09:28:07.616Z,98204.50
2019-03-12T09:30:30.048Z,98204.86
2019-03-12T09:32:41.568Z,98195.29
2019-03-12T09:34:45.792Z,98201.91
2019-03-12T09:37:02.956Z,98203.78
2019-03-12T09:39:05.798Z,98200.20
2019-03-12T09:41:08.363Z,98204.80
2019-03-12T09:43:12.405Z,98198.64
2019-03-12T09:45:16.478Z,98192.97
2019-03-12T09:47:18.080Z,98198.03
2019-03-12T09:49:22.611Z,98200.08
2019-03-12T09:51:41.965Z,98199.16
2019-03-12T09:53:44.292Z,98188.85
2019-03-12T09:56:02.612Z,98188.38
2019-03-12T09:58:04.228Z,98184.16
2019-03-12T10:00:16.118Z,98185.86
2019-03-12T10:02:18.015Z,98183.81
2019-03-12T10:04:22.208Z,98181.23
2019-03-12T10:06:29.396Z,98183.83
2019-03-12T10:08:31.008Z,98184.35
2019-03-12T10:10:32.677Z,98185.29
2019-03-12T10:12:50.054Z,98180.67
2019-03-12T10:14:57.265Z,98179.47
2019-03-12T10:17:13.883Z,98176.59
2019-03-12T10:19:19.231Z,98129.47
2019-03-12T10:21:22.451Z,98166.13
2019-03-12T10:23:40.810Z,98157.69
2019-03-12T10:25:45.881Z,98165.48
2019-03-12T10:27:47.477Z,98159.58
2019-03-12T10:30:03.967Z,98156.25
2019-03-12T10:32:06.073Z,98153.35
2019-03-12T10:34:28.811Z,98157.68
2019-03-12T10:36:20.312Z,98152.26
2019-03-12T10:38:33.593Z,98148.89
2019-03-12T10:40:41.708Z,98151.95
2019-03-12T10:43:02.166Z,98147.21
2019-03-12T10:45:09.585Z,98143.02
2019-03-12T10:47:12.968Z,98145.62
2019-03-12T10:49:14.629Z,98144.72
2019-03-12T10:51:16.222Z,98143.44
2019-03-12T10:53:17.854Z,98137.05
2019-03-12T10:55:19.450Z,98138.27
2019-03-12T10:57:21.700Z,98138.63
2019-03-12T10:59:22.728Z,98130.03
2019-03-12T11:01:24.340Z,98129.05
2019-03-12T11:03:25.984Z,98124.20
2019-03-12T11:05:27.641Z,98129.24
2019-03-12T11:07:29.225Z,98097.89
2019-03-12T11:09:30.830Z,98118.31
2019-03-12T11:11:32.413Z,98112.99
2019-03-12T11:13:34.100Z,98119.02
2019-03-12T11:15:35.736Z,98110.98
2019-03-12T11:17:48.735Z,98101.88
2019-03-12T11:19:39.009Z,98101.92
2019-03-12T11:21:40.612Z,98075.27
2019-03-12T11:23:42.272Z,98090.96
2019-03-12T11:25:44.293Z,98097.64
2019-03-12T11:27:46.110Z,98046.19
2019-03-12T11:29:47.856Z,98083.20
2019-03-12T11:31:49.676Z,98088.08
2019-03-12T11:33:51.288Z,98105.41
2019-03-12T11:35:53.390Z,98079.25
2019-03-12T11:37:55.000Z,98081.13
2019-03-12T11:39:56.635Z,98074.49
2019-03-12T11:41:58.252Z,98071.97
2019-03-12T11:43:59.858Z,98070.67
2019-03-12T11:46:01.510Z,98064.06
2019-03-12T11:48:04.970Z,98019.84
2019-03-12T11:50:06.634Z,98057.72
2019-03-12T11:52:08.897Z,98050.54
2019-03-12T11:54:10.747Z,98049.33
2019-03-12T11:56:12.404Z,98045.57
2019-03-12T11:58:14.028Z,98043.00
2019-03-12T12:00:19.251Z,98043.00
2019-03-12T12:02:17.315Z,98040.52
2019-03-12T12:04:19.536Z,98037.55
2019-03-12T12:06:21.170Z,98025.64
2019-03-12T12:08:22.807Z,98019.41
2019-03-12T12:10:24.453Z,98019.16
2019-03-12T12:12:26.054Z,98015.05
2019-03-12T12:14:27.660Z,98016.81
2019-03-12T12:16:29.262Z,98014.80
2019-03-12T12:18:30.871Z,98014.81
2019-03-12T12:20:32.473Z,98013.56
2019-03-12T12:22:34.061Z,98002.71
2019-03-12T12:24:35.686Z,97998.66
2019-03-12T12:26:37.376Z,97999.91
2019-03-12T12:28:39.117Z,98000.77
2019-03-12T12:30:40.810Z,97998.48
2019-03-12T12:32:42.439Z,97989.97
2019-03-12T12:34:44.723Z,97987.77
2019-03-12T12:36:46.336Z,97986.12
2019-03-12T12:38:47.934Z,97989.03
2019-03-12T12:40:49.537Z,97986.30
2019-03-12T12:42:51.157Z,97979.59
2019-03-12T12:44:52.801Z,97965.16
2019-03-12T12:46:54.402Z,97966.94
2019-03-12T12:48:55.993Z,97972.47
2019-03-12T12:51:02.936Z,97913.63
2019-03-12T12:52:59.257Z,97970.79
2019-03-12T12:55:00.865Z,97966.14
2019-03-12T12:57:02.467Z,97937.04
2019-03-12T12:59:04.067Z,97950.47
2019-03-12T13:01:05.714Z,97945.75
2019-03-12T13:03:07.408Z,97943.27
2019-03-12T13:05:09.448Z,97939.23
2019-03-12T13:07:11.070Z,97929.95
2019-03-12T13:09:12.670Z,97931.31
2019-03-12T13:11:14.257Z,97921.75
2019-03-12T13:13:15.860Z,97927.05
2019-03-12T13:15:17.633Z,97919.95
2019-03-12T13:17:19.240Z,97909.54
2019-03-12T13:19:20.885Z,97914.13
2019-03-12T13:21:22.484Z,97906.28
2019-03-12T13:23:24.083Z,97908.11
2019-03-12T13:25:25.992Z,97895.54
2019-03-12T13:27:27.575Z,97891.67
2019-03-12T13:29:29.404Z,97886.89
2019-03-12T13:31:31.027Z,97894.50
2019-03-12T13:33:32.622Z,97884.39
2019-03-12T13:35:34.788Z,97864.30
2019-03-12T13:37:36.379Z,97881.03
2019-03-12T13:39:38.316Z,97877.33
2019-03-12T13:41:39.929Z,97883.77
2019-03-12T13:43:41.550Z,97884.95
2019-03-12T13:45:43.353Z,97873.85
2019-03-12T13:47:45.440Z,97865.38
2019-03-12T13:49:46.624Z,97865.55
2019-03-12T13:51:48.698Z,97860.61
2019-03-12T13:53:50.063Z,97867.13
2019-03-12T13:55:51.661Z,97858.40
2019-03-12T13:57:53.302Z,97850.38
2019-03-12T13:59:54.956Z,97840.08
2019-03-12T14:01:56.578Z,97840.64
2019-03-12T14:04:10.068Z,97834.09
2019-03-12T14:06:00.178Z,97823.52
2019-03-12T14:08:01.773Z,97818.38
2019-03-12T14:10:04.591Z,97812.47
2019-03-12T14:12:06.204Z,97813.11
2019-03-12T14:14:07.806Z,97816.77
2019-03-12T14:16:09.438Z,97812.77
2019-03-12T14:18:11.097Z,97802.69
2019-03-12T14:20:12.809Z,97800.12
2019-03-12T14:22:14.447Z,97801.04
2019-03-12T14:24:16.048Z,97789.08
2019-03-12T14:26:17.644Z,97786.98
2019-03-12T14:28:19.268Z,97774.67
2019-03-12T14:30:20.867Z,97776.73
2019-03-12T14:32:22.476Z,97757.26
2019-03-12T14:34:26.935Z,97754.50
2019-03-12T14:36:25.739Z,97756.81
2019-03-12T14:38:27.367Z,97754.02
2019-03-12T14:40:28.975Z,97749.59
2019-03-12T14:42:30.628Z,97747.14
2019-03-12T14:44:32.234Z,97743.38
2019-03-12T14:46:33.834Z,97733.55
2019-03-12T14:48:35.470Z,97735.58
2019-03-12T14:50:37.070Z,97724.73
2019-03-12T14:52:38.671Z,97720.23
2019-03-12T14:54:40.278Z,97720.55
2019-03-12T14:56:41.883Z,97710.61
2019-03-12T14:58:43.525Z,97710.25
2019-03-12T15:00:45.139Z,97702.77
2019-03-12T15:02:46.750Z,97703.73
2019-03-12T15:04:48.366Z,97701.17
2019-03-12T15:06:50.117Z,97697.41
2019-03-12T15:08:51.740Z,97688.58
2019-03-12T15:10:53.341Z,97683.66
2019-03-12T15:12:55.016Z,97671.14
2019-03-12T15:14:56.651Z,97669.59
2019-03-12T15:16:58.265Z,97664.77
2019-03-12T15:18:59.900Z,97669.83
2019-03-12T15:21:01.543Z,97644.19
2019-03-12T15:23:03.174Z,97663.26
2019-03-12T15:25:04.791Z,97657.12
2019-03-12T15:27:06.416Z,97653.39
2019-03-12T15:29:08.035Z,97645.14
2019-03-12T15:31:09.674Z,97638.64
2019-03-12T15:33:11.576Z,97636.64
2019-03-12T15:35:13.174Z,97635.44
2019-03-12T15:37:14.769Z,97629.36
2019-03-12T15:39:16.395Z,97630.53
2019-03-12T15:41:18.056Z,97629.34
2019-03-12T15:43:19.680Z,97628.29
2019-03-12T15:45:21.268Z,97626.68
2019-03-12T15:47:22.903Z,97625.52
2019-03-12T15:49:24.493Z,97621.66
2019-03-12T15:51:26.120Z,97616.78
2019-03-12T15:53:27.863Z,97612.35
2019-03-12T15:55:29.461Z,97604.89
2019-03-12T15:57:31.096Z,97608.01
2019-03-12T15:59:32.690Z,97609.14
2019-03-12T16:01:34.287Z,97607.16
2019-03-12T16:03:35.900Z,97608.00
2019-03-12T16:05:37.536Z,97606.55
2019-03-12T16:07:39.126Z,97594.08
2019-03-12T16:09:40.721Z,97600.02
2019-03-12T16:11:43.016Z,97595.22
2019-03-12T16:13:44.670Z,97596.84
2019-03-12T16:15:46.298Z,97594.77
2019-03-12T16:17:47.895Z,97588.56
2019-03-12T16:19:49.563Z,97581.23
2019-03-12T16:21:51.166Z,97579.32
2019-03-12T16:23:52.950Z,97581.97
2019-03-12T16:25:54.394Z,97572.14
2019-03-12T16:27:56.028Z,97571.98
2019-03-12T16:29:57.641Z,97571.47
2019-03-12T16:31:59.260Z,97563.34
2019-03-12T16:34:00.858Z,97561.08
2019-03-12T16:36:02.467Z,97555.88
2019-03-12T16:38:06.885Z,97554.70
2019-03-12T16:40:05.754Z,97551.44
2019-03-12T16:42:07.349Z,97552.66
2019-03-12T16:44:09.216Z,97548.93
2019-03-12T16:46:10.810Z,97537.80
2019-03-12T16:48:12.554Z,97539.56
2019-03-12T16:50:14.109Z,97534.47
2019-03-12T16:52:16.008Z,97529.97
2019-03-12T16:54:17.703Z,97515.47
2019-03-12T16:56:19.332Z,97519.60
2019-03-12T16:58:21.007Z,97530.81
2019-03-12T17:00:22.972Z,97524.98
2019-03-12T17:02:24.626Z,97529.34
2019-03-12T17:04:26.246Z,97526.66
2019-03-12T17:06:27.886Z,97514.55
2019-03-12T17:08:29.536Z,97510.08
2019-03-12T17:10:31.176Z,97512.40
2019-03-12T17:12:32.978Z,97505.94
2019-03-12T17:14:39.093Z,97501.20
2019-03-12T17:16:36.270Z,97500.34
2019-03-12T17:18:37.928Z,97500.06
2019-03-12T17:20:39.527Z,97491.28
2019-03-12T17:22:41.283Z,97490.00
2019-03-12T17:24:43.094Z,97492.23
2019-03-12T17:26:44.697Z,97488.92
2019-03-12T17:28:46.294Z,97484.00
2019-03-12T17:30:47.918Z,97472.68
2019-03-12T17:32:49.524Z,97474.27
2019-03-12T17:34:51.118Z,97460.28
2019-03-12T17:36:52.718Z,97463.72
2019-03-12T17:38:54.340Z,97465.42
2019-03-12T17:40:55.969Z,97461.13
2019-03-12T17:42:57.596Z,97451.30
2019-03-12T17:44:59.198Z,97452.19
2019-03-12T17:47:00.805Z,97449.94
2019-03-12T17:49:02.452Z,97443.42
2019-03-12T17:51:04.276Z,97447.85
2019-03-12T17:53:05.881Z,97436.48
2019-03-12T17:55:07.513Z,97435.52
2019-03-12T17:57:09.747Z,97428.25
2019-03-12T17:59:11.352Z,97421.12
2019-03-12T18:01:12.994Z,97417.04
2019-03-12T18:03:14.606Z,97411.85
2019-03-12T18:05:16.205Z,97410.45
2019-03-12T18:07:17.807Z,97408.53
2019-03-12T18:09:19.407Z,97399.84
2019-03-12T18:11:21.654Z,97398.94
2019-03-12T18:13:23.242Z,97396.70
2019-03-12T18:15:24.950Z,97392.30
2019-03-12T18:17:26.555Z,97377.77
2019-03-12T18:19:28.166Z,97385.92
2019-03-12T18:21:29.760Z,97383.05
2019-03-12T18:23:31.372Z,97376.53
2019-03-12T18:25:33.071Z,97371.48
2019-03-12T18:27:35.388Z,97366.30
2019-03-12T18:29:37.237Z,97365.54
2019-03-12T18:31:38.905Z,97363.02
2019-03-12T18:33:40.548Z,97353.98
2019-03-12T18:35:42.145Z,97347.20
2019-03-12T18:37:43.741Z,97335.71
2019-03-12T18:39:45.418Z,97321.66
2019-03-12T18:41:47.000Z,97340.63
2019-03-12T18:43:48.594Z,97331.39
2019-03-12T18:45:50.388Z,97322.51
2019-03-12T18:47:51.997Z,97315.24
2019-03-12T18:49:54.469Z,97311.72
2019-03-12T18:51:56.100Z,97312.32
2019-03-12T18:53:57.709Z,97315.89
2019-03-12T18:55:59.319Z,97309.78
2019-03-12T18:58:01.580Z,97300.81
2019-03-12T19:00:03.173Z,97294.49
2019-03-12T19:02:04.808Z,97287.84
2019-03-12T19:04:06.401Z,97279.75
2019-03-12T19:06:10.062Z,97282.11
2019-03-12T19:08:10.184Z,97276.90
2019-03-12T19:10:13.144Z,97267.24
2019-03-12T19:12:13.534Z,97266.77
2019-03-12T19:14:15.129Z,97267.64
2019-03-12T19:16:17.148Z,97262.78
2019-03-12T19:18:18.728Z,97257.80
2019-03-12T19:20:20.308Z,97255.81
2019-03-12T19:22:21.904Z,97252.61
2019-03-12T19:24:23.508Z,97232.41
2019-03-12T19:26:27.558Z,97243.92
2019-03-12T19:28:29.289Z,97235.67
2019-03-12T19:30:30.904Z,97223.07
2019-03-12T19:32:33.152Z,97215.70
2019-03-12T19:34:34.814Z,97206.82
2019-03-12T19:36:36.414Z,97192.61
2019-03-12T19:38:38.027Z,97193.16
2019-03-12T19:40:39.650Z,97187.91
2019-03-12T19:42:42.038Z,97199.83
2019-03-12T19:44:43.689Z,97178.25
2019-03-12T19:46:45.329Z,97153.69
2019-03-12T19:48:46.943Z,97172.51
2019-03-12T19:50:48.567Z,97156.78
2019-03-12T19:52:50.293Z,97157.06
2019-03-12T19:54:51.885Z,97161.95
2019-03-12T19:56:53.532Z,97115.05
2019-03-12T19:58:55.925Z,97146.40
2019-03-12T20:00:57.542Z,97142.55
2019-03-12T20:03:10.283Z,97136.26
2019-03-12T20:05:02.743Z,97122.34
2019-03-12T20:07:04.342Z,97125.47
2019-03-12T20:09:06.095Z,97111.20
2019-03-12T20:11:07.648Z,97113.34
2019-03-12T20:13:11.984Z,97106.91
2019-03-12T20:15:13.601Z,97097.73
2019-03-12T20:17:15.213Z,97087.33
2019-03-12T20:19:17.323Z,97086.19
2019-03-12T20:21:18.936Z,97090.16
2019-03-12T20:23:21.763Z,97072.81
2019-03-12T20:25:24.313Z,97076.65
2019-03-12T20:27:26.456Z,97069.82
2019-03-12T20:29:28.286Z,97064.48
2019-03-12T20:31:29.878Z,97061.61
2019-03-12T20:33:31.576Z,97055.92
2019-03-12T20:35:33.783Z,97050.25
2019-03-12T20:37:36.367Z,97042.64
2019-03-12T20:39:38.004Z,97036.89
2019-03-12T20:41:39.603Z,97035.13
2019-03-12T20:43:41.216Z,97028.03
2019-03-12T20:45:42.882Z,97028.99
2019-03-12T20:47:44.503Z,97005.28
2019-03-12T20:49:46.153Z,96992.22
2019-03-12T20:51:49.091Z,96981.98
2019-03-12T20:53:50.676Z,96975.85
2019-03-12T20:55:52.284Z,96978.78
2019-03-12T20:57:53.924Z,96982.33
2019-03-12T20:59:55.539Z,96984.59
2019-03-12T21:01:57.135Z,96979.02
2019-03-12T21:03:59.043Z,96975.67
2019-03-12T21:06:00.651Z,96966.72
2019-03-12T21:08:02.267Z,96971.92
2019-03-12T21:10:03.929Z,96961.34
2019-03-12T21:12:06.123Z,96956.25
2019-03-12T21:14:07.727Z,96949.17
2019-03-12T21:16:09.368Z,96945.78
2019-03-12T21:18:10.952Z,96940.72
2019-03-12T21:20:12.553Z,96924.50
2019-03-12T21:22:14.144Z,96934.41
2019-03-12T21:24:15.748Z,96925.55
2019-03-12T21:26:17.457Z,96874.70
2019-03-12T21:28:19.072Z,96924.15
2019-03-12T21:30:20.670Z,96919.84
2019-03-12T21:32:22.271Z,96908.46
2019-03-12T21:34:23.865Z,96908.07
2019-03-12T21:36:25.487Z,96897.81
2019-03-12T21:38:27.087Z,96894.80
2019-03-12T21:40:28.693Z,96894.30
2019-03-12T21:42:30.299Z,96889.91
2019-03-12T21:44:32.009Z,96882.18
2019-03-12T21:46:33.596Z,96875.81
2019-03-12T21:48:35.211Z,96879.91
2019-03-12T21:50:36.838Z,96885.94
2019-03-12T21:52:38.437Z,96871.36
2019-03-12T21:54:40.092Z,96865.52
2019-03-12T21:56:41.695Z,96855.16
2019-03-12T21:58:43.298Z,96862.13
2019-03-12T22:00:44.965Z,96844.22
2019-03-12T22:02:46.563Z,96846.22
2019-03-12T22:04:48.161Z,96837.05
2019-03-12T22:06:49.768Z,96839.98
2019-03-12T22:08:51.353Z,96832.69
2019-03-12T22:10:52.996Z,96827.66
2019-03-12T22:12:54.604Z,96829.75
2019-03-12T22:14:56.233Z,96824.03
2019-03-12T22:16:57.839Z,96821.42
2019-03-12T22:18:59.433Z,96818.62
2019-03-12T22:21:01.077Z,96810.50
2019-03-12T22:23:07.600Z,96814.06
2019-03-12T22:25:09.212Z,96808.41
2019-03-12T22:27:10.860Z,96798.04
2019-03-12T22:29:12.531Z,96793.59
2019-03-12T22:31:14.137Z,96788.78
2019-03-12T22:33:15.743Z,96790.34
2019-03-12T22:35:17.399Z,96779.02
2019-03-12T22:37:19.030Z,96793.79
2019-03-12T22:39:20.640Z,96776.69
2019-03-12T22:41:22.300Z,96778.72
2019-03-12T22:43:23.897Z,96771.23
2019-03-12T22:45:25.490Z,96767.91
2019-03-12T22:47:27.092Z,96754.88
2019-03-12T22:49:28.690Z,96745.52
2019-03-12T22:51:30.281Z,96749.77
2019-03-12T22:53:31.927Z,96741.11
2019-03-12T22:55:33.552Z,96739.03
2019-03-12T22:57:35.142Z,96735.61
2019-03-12T22:59:36.738Z,96730.94
2019-03-12T23:01:38.365Z,96733.41
2019-03-12T23:03:39.994Z,96723.11
2019-03-12T23:05:41.758Z,96626.61
2019-03-12T23:07:43.355Z,96701.95
2019-03-12T23:09:44.947Z,96728.77
2019-03-12T23:11:46.556Z,96716.81
2019-03-12T23:13:48.149Z,96717.64
2019-03-12T23:15:49.816Z,96713.92
2019-03-12T23:17:51.414Z,96706.69
2019-03-12T23:19:53.027Z,96698.20
2019-03-12T23:21:54.678Z,96694.99
2019-03-12T23:23:56.278Z,96681.72
2019-03-12T23:25:57.884Z,96681.37
2019-03-12T23:27:59.478Z,96683.48
2019-03-12T23:30:01.073Z,96682.23
2019-03-12T23:32:02.729Z,96692.52
2019-03-12T23:34:04.341Z,96691.80
2019-03-12T23:36:05.933Z,96675.70
2019-03-12T23:38:07.530Z,96671.89
2019-03-12T23:40:09.140Z,96669.40
2019-03-12T23:42:10.770Z,96665.14
2019-03-12T23:44:12.412Z,96654.08
2019-03-12T23:46:14.019Z,96659.28
2019-03-12T23:48:15.651Z,96650.47
2019-03-12T23:50:17.263Z,96645.72
2019-03-12T23:52:18.857Z,96648.78
2019-03-12T23:54:20.477Z,96649.31
2019-03-12T23:56:22.104Z,96651.45
2019-03-12T23:58:23.733Z,96651.81
